Dodson, Oregon
Current Conditions -  °F | °C
As of 3:59 PM on Friday 24 Oct 2014 (Local Time) from K4S2 Reporting Station
Moderate Rain Moderate Rain  
Wind Chill: 50°   Ceiling: 3900
Heat Index: 50°   Visibility: 4mi
Dew Point: 48°   Wind: 0mph
Humidity: 94%   Direction: NA
Pressure: 29.98"   Gusts: NA
Location:  45.6281°N, 121.806°W
Report Text: K4S2 242259Z AUTO 00000KT 4SM RA BKN039 BKN047 OVC060 10/09 A2998 RMK AO2 P0007 SLP168 T01000090
Loading
Personal Weather Stations






























Interactive Weather Map New forecast layout! Learn more

10-Day Weather Forecast

Advertisements
Track Severe Weather on mobile